Time;durP1;ratioP1;P1;durP2;ratioP2;P2;SDS_P1;SDS_P2;PMS_P1;PMS_P2;Temp;Humidity;BMP_temperature;BMP_pressure;BME280_temperature;BME280_humidity;BME280_pressure;Samples;Min_cycle;Max_cycle;Signal;HPM_P1;HPM_P2
2022/04/12 00:01:51;;;;;;;1.50;0.82;;;;;;;;;;5077007;28;20036;-81
2022/04/12 00:04:36;;;;;;;1.10;0.60;;;;;;;;;;5063272;28;20399;-81
2022/04/12 00:07:22;;;;;;;1.63;0.80;;;;;;;;;;5090479;28;20395;-81
2022/04/12 00:10:08;;;;;;;1.92;0.70;;;;;;;;;;5061781;28;20043;-81
2022/04/12 00:12:55;;;;;;;2.28;0.85;;;;;;;;;;5049357;28;20032;-81
2022/04/12 00:15:40;;;;;;;1.08;0.50;;;;;;;;;;5048421;28;20051;-81
2022/04/12 00:21:34;;;;;;;1.67;0.60;;;;;;;;;;5067999;28;20127;-81
2022/04/12 00:24:19;;;;;;;1.15;0.60;;;;;;;;;;5063158;28;20043;-82
2022/04/12 00:27:05;;;;;;;1.33;0.60;;;;;;;;;;5047774;28;20048;-81
2022/04/12 00:29:51;;;;;;;1.40;0.70;;;;;;;;;;5048139;28;20077;-81
2022/04/12 00:32:36;;;;;;;1.65;0.60;;;;;;;;;;5061289;28;20043;-81
2022/04/12 00:35:23;;;;;;;1.17;0.60;;;;;;;;;;5048677;28;20039;-81
2022/04/12 00:38:22;;;;;;;2.08;0.88;;;;;;;;;;5062858;28;20028;-81
2022/04/12 00:41:10;;;;;;;1.55;0.50;;;;;;;;;;5065540;28;20506;-81
2022/04/12 00:43:56;;;;;;;1.42;0.70;;;;;;;;;;5063540;28;20032;-81
2022/04/12 00:46:42;;;;;;;2.05;0.73;;;;;;;;;;5047858;28;20047;-81
2022/04/12 00:49:27;;;;;;;1.45;0.57;;;;;;;;;;5047329;28;20036;-81
2022/04/12 00:52:13;;;;;;;1.50;0.68;;;;;;;;;;5075213;28;20048;-81
2022/04/12 00:54:59;;;;;;;1.30;0.52;;;;;;;;;;5047593;28;20040;-81
2022/04/12 00:57:45;;;;;;;1.05;0.60;;;;;;;;;;5048450;28;20096;-81
2022/04/12 01:00:31;;;;;;;2.25;0.93;;;;;;;;;;5061729;28;20048;-81
2022/04/12 01:03:17;;;;;;;2.13;0.68;;;;;;;;;;5048386;28;20605;-81
2022/04/12 01:06:02;;;;;;;1.80;0.70;;;;;;;;;;5047467;28;20059;-82
2022/04/12 01:08:48;;;;;;;1.67;0.77;;;;;;;;;;5061893;28;20119;-82
2022/04/12 01:11:34;;;;;;;1.63;0.90;;;;;;;;;;5047692;28;20417;-81
2022/04/12 01:14:21;;;;;;;1.35;0.60;;;;;;;;;;5075664;28;20043;-82
2022/04/12 01:17:07;;;;;;;1.20;0.60;;;;;;;;;;5048076;28;20387;-81
2022/04/12 01:19:53;;;;;;;1.13;0.50;;;;;;;;;;5073814;28;20498;-81
2022/04/12 01:23:06;;;;;;;2.70;0.70;;;;;;;;;;5048173;28;20498;-81
2022/04/12 01:25:51;;;;;;;1.33;0.80;;;;;;;;;;5061595;28;20035;-81
2022/04/12 01:28:37;;;;;;;2.75;0.77;;;;;;;;;;5075538;28;20028;-82
2022/04/12 01:31:26;;;;;;;1.63;0.80;;;;;;;;;;5046886;28;20040;-81
2022/04/12 01:34:12;;;;;;;1.45;0.52;;;;;;;;;;5074880;28;20211;-82
2022/04/12 01:36:58;;;;;;;2.17;0.65;;;;;;;;;;5048855;28;20422;-82
2022/04/12 01:39:43;;;;;;;1.33;0.60;;;;;;;;;;5047249;28;20127;-81
2022/04/12 01:42:29;;;;;;;1.20;0.55;;;;;;;;;;5048186;28;20040;-81
2022/04/12 01:45:15;;;;;;;1.63;0.70;;;;;;;;;;5074724;28;20094;-81
2022/04/12 01:48:00;;;;;;;1.35;0.65;;;;;;;;;;5062359;28;20044;-81
2022/04/12 01:50:46;;;;;;;1.58;0.50;;;;;;;;;;5046107;28;20039;-82
2022/04/12 01:53:32;;;;;;;0.90;0.50;;;;;;;;;;5047981;28;20052;-81
2022/04/12 01:56:18;;;;;;;1.63;0.68;;;;;;;;;;5047033;28;20051;-81
2022/04/12 01:59:04;;;;;;;1.67;0.77;;;;;;;;;;5046729;28;20036;-81
2022/04/12 02:01:49;;;;;;;1.27;0.50;;;;;;;;;;5048407;28;20035;-81
2022/04/12 02:04:35;;;;;;;2.50;0.60;;;;;;;;;;5046744;28;20040;-81
2022/04/12 02:07:21;;;;;;;1.40;0.65;;;;;;;;;;5062278;28;20040;-81
2022/04/12 02:10:08;;;;;;;2.22;0.57;;;;;;;;;;5064013;28;20119;-81
2022/04/12 02:12:54;;;;;;;1.25;0.70;;;;;;;;;;5079138;28;20024;-81
2022/04/12 02:15:40;;;;;;;1.67;0.60;;;;;;;;;;5064092;28;20050;-81
2022/04/12 02:18:26;;;;;;;2.17;0.90;;;;;;;;;;5064354;28;20050;-81
2022/04/12 02:21:11;;;;;;;1.40;0.50;;;;;;;;;;5065115;28;20093;-82
2022/04/12 02:23:57;;;;;;;2.08;0.77;;;;;;;;;;5051214;28;20040;-81
2022/04/12 02:26:44;;;;;;;1.60;0.40;;;;;;;;;;5065468;28;20078;-81
2022/04/12 02:29:30;;;;;;;2.80;0.52;;;;;;;;;;5052364;28;20035;-81
2022/04/12 02:32:15;;;;;;;2.05;0.57;;;;;;;;;;5063839;28;20123;-82
2022/04/12 02:35:01;;;;;;;1.77;0.68;;;;;;;;;;5050751;28;20461;-81
2022/04/12 02:37:47;;;;;;;2.22;0.90;;;;;;;;;;5050689;28;20036;-81
2022/04/12 02:40:32;;;;;;;1.17;0.52;;;;;;;;;;5078362;28;20028;-81
2022/04/12 02:43:18;;;;;;;0.90;0.50;;;;;;;;;;5050697;28;20036;-81
2022/04/12 02:46:04;;;;;;;1.80;0.50;;;;;;;;;;5064004;28;20510;-81
2022/04/12 02:48:50;;;;;;;1.35;0.50;;;;;;;;;;5049207;28;20032;-82
2022/04/12 02:51:35;;;;;;;1.23;0.40;;;;;;;;;;5050499;28;20048;-81
2022/04/12 02:54:21;;;;;;;1.77;0.70;;;;;;;;;;5064273;28;20398;-82
2022/04/12 02:57:07;;;;;;;1.27;0.50;;;;;;;;;;5065035;28;20540;-81
2022/04/12 02:59:52;;;;;;;1.35;0.60;;;;;;;;;;5078053;28;20040;-81
2022/04/12 03:02:38;;;;;;;1.30;0.60;;;;;;;;;;5050943;28;20094;-81
2022/04/12 03:05:24;;;;;;;1.50;0.50;;;;;;;;;;5049550;28;20044;-81
2022/04/12 03:08:09;;;;;;;1.48;0.70;;;;;;;;;;5078774;28;20025;-81
2022/04/12 03:10:55;;;;;;;1.00;0.45;;;;;;;;;;5050323;28;20047;-81
2022/04/12 03:13:41;;;;;;;2.15;0.63;;;;;;;;;;5049887;28;20089;-81
2022/04/12 03:16:26;;;;;;;1.65;0.55;;;;;;;;;;5048552;28;20039;-81
2022/04/12 03:19:12;;;;;;;1.00;0.52;;;;;;;;;;5050715;28;20536;-81
2022/04/12 03:21:58;;;;;;;2.05;0.57;;;;;;;;;;5049866;28;20074;-82
2022/04/12 03:24:45;;;;;;;1.15;0.40;;;;;;;;;;5048775;28;20029;-82
2022/04/12 03:27:30;;;;;;;1.88;0.80;;;;;;;;;;5064799;28;20052;-81
2022/04/12 03:30:16;;;;;;;1.42;0.50;;;;;;;;;;5049786;28;20043;-81
2022/04/12 03:33:02;;;;;;;1.98;0.65;;;;;;;;;;5062522;28;20071;-81
2022/04/12 03:35:48;;;;;;;1.15;0.60;;;;;;;;;;5050789;28;20421;-81
2022/04/12 03:38:35;;;;;;;0.85;0.50;;;;;;;;;;5048925;28;20032;-81
2022/04/12 03:41:22;;;;;;;1.13;0.60;;;;;;;;;;5050722;28;20032;-81
2022/04/12 03:44:08;;;;;;;1.00;0.30;;;;;;;;;;5051097;28;20563;-81
2022/04/12 03:46:54;;;;;;;0.90;0.60;;;;;;;;;;5063121;28;20118;-82
2022/04/12 03:49:40;;;;;;;1.60;0.70;;;;;;;;;;5049280;28;20109;-81
2022/04/12 03:52:25;;;;;;;0.75;0.35;;;;;;;;;;5050272;28;20105;-82
2022/04/12 03:55:11;;;;;;;1.83;0.47;;;;;;;;;;5049189;28;20055;-82
2022/04/12 03:57:58;;;;;;;1.10;0.50;;;;;;;;;;5062541;28;20036;-81
2022/04/12 04:00:44;;;;;;;1.05;0.55;;;;;;;;;;5075980;28;20521;-82
2022/04/12 04:03:31;;;;;;;2.38;0.77;;;;;;;;;;5090553;28;20050;-81
2022/04/12 04:06:16;;;;;;;1.70;0.50;;;;;;;;;;5049637;28;20502;-82
2022/04/12 04:09:02;;;;;;;1.05;0.50;;;;;;;;;;5090464;28;20044;-81
2022/04/12 04:11:48;;;;;;;0.73;0.40;;;;;;;;;;5061567;28;20130;-81
2022/04/12 04:14:34;;;;;;;1.10;0.52;;;;;;;;;;5047841;28;20170;-81
2022/04/12 04:17:21;;;;;;;1.52;0.65;;;;;;;;;;5049670;28;20567;-81
2022/04/12 04:20:08;;;;;;;2.15;0.50;;;;;;;;;;5076442;28;20040;-81
2022/04/12 04:22:54;;;;;;;1.33;0.55;;;;;;;;;;5062993;28;20124;-81
2022/04/12 04:25:39;;;;;;;1.55;0.40;;;;;;;;;;5048635;28;20505;-81
2022/04/12 04:28:29;;;;;;;1.52;0.47;;;;;;;;;;5062394;28;20105;-81
2022/04/12 04:31:15;;;;;;;1.33;0.40;;;;;;;;;;5063380;28;20567;-81
2022/04/12 04:34:01;;;;;;;0.93;0.50;;;;;;;;;;5075393;28;20043;-81
2022/04/12 04:36:46;;;;;;;0.60;0.40;;;;;;;;;;5048676;28;20043;-81
2022/04/12 04:39:32;;;;;;;0.98;0.40;;;;;;;;;;5047839;28;20036;-81
2022/04/12 04:42:20;;;;;;;1.70;0.57;;;;;;;;;;5076433;28;20036;-82
2022/04/12 04:45:07;;;;;;;1.33;0.57;;;;;;;;;;5062608;28;20040;-81
2022/04/12 04:47:56;;;;;;;1.05;0.50;;;;;;;;;;5076185;28;20032;-82
2022/04/12 04:50:42;;;;;;;1.08;0.40;;;;;;;;;;5075515;28;20090;-81
2022/04/12 04:53:28;;;;;;;1.30;0.40;;;;;;;;;;5075451;28;20032;-81
2022/04/12 04:56:13;;;;;;;0.98;0.30;;;;;;;;;;5048466;28;20040;-81
2022/04/12 04:58:59;;;;;;;1.67;0.70;;;;;;;;;;5048015;28;20040;-82
2022/04/12 05:01:45;;;;;;;1.20;0.60;;;;;;;;;;5047848;28;20078;-81
2022/04/12 05:04:30;;;;;;;1.25;0.63;;;;;;;;;;5090124;28;20047;-81
2022/04/12 05:07:25;;;;;;;1.60;0.50;;;;;;;;;;5048177;28;20074;-81
2022/04/12 05:10:15;;;;;;;1.35;0.50;;;;;;;;;;5062302;28;20036;-81
2022/04/12 05:13:01;;;;;;;0.98;0.50;;;;;;;;;;5047560;28;20526;-81
2022/04/12 05:15:47;;;;;;;2.65;0.70;;;;;;;;;;5062690;28;20043;-82
2022/04/12 05:18:32;;;;;;;1.02;0.40;;;;;;;;;;5048103;28;20040;-81
2022/04/12 05:21:18;;;;;;;1.25;0.43;;;;;;;;;;5048112;28;20093;-81
2022/04/12 05:24:05;;;;;;;2.80;0.50;;;;;;;;;;5060905;28;20047;-81
2022/04/12 05:26:50;;;;;;;0.93;0.40;;;;;;;;;;5048361;28;20449;-81
2022/04/12 05:29:36;;;;;;;2.40;0.60;;;;;;;;;;5048058;28;20036;-81
2022/04/12 05:32:23;;;;;;;1.33;0.50;;;;;;;;;;5048085;28;20042;-82
2022/04/12 05:35:09;;;;;;;2.45;0.60;;;;;;;;;;5060580;28;20032;-82
2022/04/12 05:37:55;;;;;;;1.85;0.57;;;;;;;;;;5048734;28;20055;-82
2022/04/12 05:40:41;;;;;;;2.13;0.57;;;;;;;;;;5047370;28;20040;-81
2022/04/12 05:43:27;;;;;;;0.90;0.40;;;;;;;;;;5048804;28;20043;-81
2022/04/12 05:46:12;;;;;;;2.03;0.60;;;;;;;;;;5051768;28;20047;-82
2022/04/12 05:48:58;;;;;;;1.92;0.77;;;;;;;;;;5051923;28;20078;-81
2022/04/12 05:51:44;;;;;;;1.55;0.60;;;;;;;;;;5051692;28;20122;-82
2022/04/12 05:54:29;;;;;;;1.35;0.55;;;;;;;;;;5079937;28;20075;-81
2022/04/12 05:57:15;;;;;;;1.23;0.50;;;;;;;;;;5065885;28;20158;-82
2022/04/12 06:00:01;;;;;;;1.25;0.60;;;;;;;;;;5051789;28;20032;-81
2022/04/12 06:02:48;;;;;;;0.68;0.30;;;;;;;;;;5051979;28;20032;-82
2022/04/12 06:05:34;;;;;;;1.27;0.60;;;;;;;;;;5065845;28;20036;-81
2022/04/12 06:08:20;;;;;;;1.45;0.40;;;;;;;;;;5051532;28;20068;-81
2022/04/12 06:11:06;;;;;;;1.63;0.68;;;;;;;;;;5049961;28;20075;-82
2022/04/12 06:13:51;;;;;;;4.35;1.05;;;;;;;;;;5050825;28;20036;-81
2022/04/12 06:16:37;;;;;;;1.63;0.73;;;;;;;;;;5064220;28;20040;-81
2022/04/12 06:19:23;;;;;;;1.77;0.63;;;;;;;;;;5064984;28;20135;-81
2022/04/12 06:22:08;;;;;;;1.58;0.70;;;;;;;;;;5063957;28;20414;-81
2022/04/12 06:24:54;;;;;;;1.83;0.50;;;;;;;;;;5050820;28;20441;-82
2022/04/12 06:27:50;;;;;;;1.40;0.60;;;;;;;;;;5065225;28;20035;-81
2022/04/12 06:30:36;;;;;;;1.48;0.40;;;;;;;;;;5052575;28;20053;-82
2022/04/12 06:33:22;;;;;;;2.05;0.60;;;;;;;;;;5062953;28;20039;-81
2022/04/12 06:36:07;;;;;;;1.05;0.45;;;;;;;;;;5050099;28;20032;-82
2022/04/12 06:38:54;;;;;;;2.67;0.90;;;;;;;;;;5050447;28;20051;-82
2022/04/12 06:41:40;;;;;;;1.40;0.50;;;;;;;;;;5051122;28;20040;-82
2022/04/12 06:44:26;;;;;;;1.35;0.45;;;;;;;;;;5092131;28;20486;-81
2022/04/12 06:47:11;;;;;;;1.20;0.40;;;;;;;;;;5049551;28;20040;-81
2022/04/12 06:49:57;;;;;;;2.13;0.82;;;;;;;;;;5063602;28;20079;-81
2022/04/12 06:52:43;;;;;;;1.92;0.40;;;;;;;;;;5051707;28;20051;-81
2022/04/12 06:55:29;;;;;;;1.38;0.63;;;;;;;;;;5048132;28;20036;-81
2022/04/12 06:58:14;;;;;;;1.33;0.40;;;;;;;;;;5050513;28;20448;-81
2022/04/12 07:01:00;;;;;;;1.58;0.50;;;;;;;;;;5050389;28;20529;-82
2022/04/12 07:03:46;;;;;;;1.58;0.60;;;;;;;;;;5051402;28;20044;-81
2022/04/12 07:06:31;;;;;;;1.42;0.50;;;;;;;;;;5063090;28;20036;-81
2022/04/12 07:09:20;;;;;;;1.75;0.52;;;;;;;;;;5063545;28;20078;-82
2022/04/12 07:12:06;;;;;;;3.67;0.70;;;;;;;;;;5050562;28;20074;-82
2022/04/12 07:14:52;;;;;;;1.48;0.60;;;;;;;;;;5050754;28;20032;-82
2022/04/12 07:17:38;;;;;;;1.77;0.73;;;;;;;;;;5064356;28;20044;-82
2022/04/12 07:20:24;;;;;;;2.08;0.65;;;;;;;;;;5049283;28;20044;-82
2022/04/12 07:23:09;;;;;;;1.38;0.45;;;;;;;;;;5049413;28;20484;-82
2022/04/12 07:25:55;;;;;;;1.08;0.50;;;;;;;;;;5077865;28;20395;-82
2022/04/12 07:28:41;;;;;;;1.17;0.50;;;;;;;;;;5049493;28;20589;-82
2022/04/12 07:31:27;;;;;;;1.42;0.60;;;;;;;;;;5078256;28;20063;-82
2022/04/12 07:34:13;;;;;;;1.77;0.55;;;;;;;;;;5050701;28;20042;-81
2022/04/12 07:36:59;;;;;;;1.27;0.50;;;;;;;;;;5048883;28;20063;-81
2022/04/12 07:39:44;;;;;;;4.25;0.80;;;;;;;;;;5049729;28;20047;-82
2022/04/12 07:42:30;;;;;;;1.05;0.50;;;;;;;;;;5063282;28;20044;-82
2022/04/12 07:45:16;;;;;;;1.85;0.85;;;;;;;;;;5048703;28;20053;-81
2022/04/12 07:48:02;;;;;;;1.55;0.57;;;;;;;;;;5063552;28;20127;-81
2022/04/12 07:50:48;;;;;;;1.35;0.60;;;;;;;;;;5076052;28;20051;-83
2022/04/12 07:53:34;;;;;;;2.75;0.70;;;;;;;;;;5050318;28;20098;-81
2022/04/12 07:56:19;;;;;;;1.48;0.60;;;;;;;;;;5076084;28;20035;-82
2022/04/12 07:59:06;;;;;;;1.05;0.30;;;;;;;;;;5048296;28;20039;-82
2022/04/12 08:01:52;;;;;;;2.72;1.02;;;;;;;;;;5048639;28;20036;-82
2022/04/12 08:04:41;;;;;;;1.27;0.45;;;;;;;;;;5049455;28;20036;-82
2022/04/12 08:07:27;;;;;;;1.75;0.57;;;;;;;;;;5063800;28;20047;-82
2022/04/12 08:10:13;;;;;;;1.08;0.55;;;;;;;;;;5061613;28;20036;-81
2022/04/12 08:12:58;;;;;;;1.77;0.50;;;;;;;;;;5049987;28;20418;-81
2022/04/12 08:15:44;;;;;;;1.88;0.70;;;;;;;;;;5048722;28;20040;-82
2022/04/12 08:18:31;;;;;;;1.40;0.60;;;;;;;;;;5048736;28;20396;-81
2022/04/12 08:21:34;;;;;;;1.20;0.43;;;;;;;;;;5049166;28;20051;-82
2022/04/12 08:24:21;;;;;;;1.27;0.55;;;;;;;;;;5063493;28;20461;-82
2022/04/12 08:27:07;;;;;;;1.40;0.50;;;;;;;;;;5046415;28;20097;-81
2022/04/12 08:29:53;;;;;;;1.27;0.52;;;;;;;;;;5077386;28;20036;-82
2022/04/12 08:32:39;;;;;;;1.42;0.47;;;;;;;;;;5090343;28;20044;-81
2022/04/12 08:35:25;;;;;;;1.50;0.50;;;;;;;;;;5060792;28;20448;-81
2022/04/12 08:38:10;;;;;;;1.45;0.85;;;;;;;;;;5075739;28;20490;-82
2022/04/12 08:40:56;;;;;;;1.15;0.40;;;;;;;;;;5048388;28;20044;-82
2022/04/12 08:43:42;;;;;;;1.35;0.60;;;;;;;;;;5062755;28;20044;-81
2022/04/12 08:46:28;;;;;;;1.10;0.50;;;;;;;;;;5048044;28;20046;-82
2022/04/12 08:49:14;;;;;;;3.17;0.50;;;;;;;;;;5062377;28;20494;-82
2022/04/12 08:52:00;;;;;;;0.90;0.35;;;;;;;;;;5047637;28;20082;-82
2022/04/12 08:54:45;;;;;;;1.42;0.55;;;;;;;;;;5047963;28;20052;-81
2022/04/12 08:57:31;;;;;;;1.52;0.63;;;;;;;;;;5048528;28;20044;-81
2022/04/12 09:00:17;;;;;;;1.45;0.50;;;;;;;;;;5062332;28;20040;-81
2022/04/12 09:03:04;;;;;;;1.20;0.43;;;;;;;;;;5049705;28;20036;-81
2022/04/12 09:05:52;;;;;;;2.50;0.47;;;;;;;;;;5049172;28;20055;-82
2022/04/12 09:08:39;;;;;;;1.75;0.40;;;;;;;;;;5061840;28;20036;-82
2022/04/12 09:11:25;;;;;;;1.75;0.50;;;;;;;;;;5040584;28;20505;-81
2022/04/12 09:14:14;;;;;;;1.55;0.63;;;;;;;;;;5047960;28;20452;-81
2022/04/12 09:16:59;;;;;;;1.30;0.35;;;;;;;;;;5075231;28;20421;-81
2022/04/12 09:19:46;;;;;;;1.60;0.60;;;;;;;;;;5068721;28;20418;-81
2022/04/12 09:22:32;;;;;;;2.20;0.40;;;;;;;;;;5083175;28;20093;-80
2022/04/12 09:25:18;;;;;;;2.08;0.50;;;;;;;;;;5055286;28;20044;-80
2022/04/12 09:28:03;;;;;;;1.42;0.40;;;;;;;;;;5054309;28;20032;-79
2022/04/12 09:30:53;;;;;;;1.38;0.60;;;;;;;;;;5055641;28;20509;-81
2022/04/12 09:33:40;;;;;;;1.00;0.38;;;;;;;;;;5069049;28;20036;-81
2022/04/12 09:36:25;;;;;;;1.70;0.35;;;;;;;;;;5053626;28;20036;-81
2022/04/12 09:39:11;;;;;;;1.00;0.50;;;;;;;;;;5067431;28;20040;-82
2022/04/12 09:41:58;;;;;;;1.25;0.43;;;;;;;;;;5082618;28;20032;-81
2022/04/12 09:44:44;;;;;;;1.15;0.47;;;;;;;;;;5054247;28;20044;-81
2022/04/12 09:47:33;;;;;;;1.55;0.60;;;;;;;;;;5082217;28;20050;-80
2022/04/12 09:50:22;;;;;;;2.75;0.60;;;;;;;;;;5069748;28;20055;-79
2022/04/12 09:53:09;;;;;;;1.13;0.30;;;;;;;;;;5046101;28;20044;-81
2022/04/12 09:55:55;;;;;;;0.98;0.50;;;;;;;;;;5054506;28;20040;-81
2022/04/12 09:58:42;;;;;;;2.05;0.57;;;;;;;;;;5054683;28;20085;-82
2022/04/12 10:01:27;;;;;;;1.33;0.40;;;;;;;;;;5067959;28;20036;-81
2022/04/12 10:04:15;;;;;;;0.80;0.30;;;;;;;;;;5054592;28;20459;-81
2022/04/12 10:07:01;;;;;;;1.85;0.70;;;;;;;;;;5055767;28;20480;-81
2022/04/12 10:09:48;;;;;;;1.05;0.47;;;;;;;;;;5082166;28;20098;-82
2022/04/12 10:12:34;;;;;;;1.73;0.50;;;;;;;;;;5054097;28;20422;-80
2022/04/12 10:15:20;;;;;;;1.55;0.40;;;;;;;;;;5054439;28;20071;-79
2022/04/12 10:18:06;;;;;;;0.98;0.60;;;;;;;;;;5053397;28;20040;-79
2022/04/12 10:20:52;;;;;;;1.00;0.50;;;;;;;;;;5054991;28;20044;-79
2022/04/12 10:23:39;;;;;;;2.42;0.40;;;;;;;;;;5053489;28;20040;-79
2022/04/12 10:26:26;;;;;;;1.30;0.30;;;;;;;;;;5067638;28;20101;-80
2022/04/12 10:29:13;;;;;;;1.70;0.68;;;;;;;;;;5054713;28;20051;-79
2022/04/12 10:32:00;;;;;;;1.33;0.40;;;;;;;;;;5051973;28;20040;-79
2022/04/12 10:34:59;;;;;;;0.77;0.30;;;;;;;;;;5050976;28;20047;-79
2022/04/12 10:37:45;;;;;;;1.40;0.40;;;;;;;;;;5051419;28;20516;-80
2022/04/12 10:40:31;;;;;;;1.25;0.30;;;;;;;;;;5064166;28;20043;-79
2022/04/12 10:43:24;;;;;;;0.70;0.20;;;;;;;;;;5063616;28;20032;-80
2022/04/12 10:46:11;;;;;;;1.75;0.82;;;;;;;;;;5050764;28;20114;-80
2022/04/12 10:48:57;;;;;;;1.10;0.50;;;;;;;;;;5064328;28;20048;-79
2022/04/12 10:51:44;;;;;;;0.88;0.40;;;;;;;;;;5063545;28;20048;-81
2022/04/12 10:54:34;;;;;;;1.20;0.47;;;;;;;;;;5050815;28;20110;-82
2022/04/12 10:57:22;;;;;;;0.93;0.30;;;;;;;;;;5062912;28;20124;-82
2022/04/12 11:00:13;;;;;;;0.77;0.30;;;;;;;;;;5063774;28;20418;-82
2022/04/12 11:02:58;;;;;;;1.33;0.50;;;;;;;;;;5078617;28;20033;-81
2022/04/12 11:05:45;;;;;;;1.30;0.50;;;;;;;;;;5077763;28;20048;-81
2022/04/12 11:08:33;;;;;;;1.73;0.45;;;;;;;;;;5077626;28;20088;-81
2022/04/12 11:11:23;;;;;;;0.95;0.30;;;;;;;;;;5092815;28;20075;-82
2022/04/12 11:14:28;;;;;;;1.20;0.40;;;;;;;;;;5077518;28;20035;-81
2022/04/12 11:17:14;;;;;;;1.65;0.40;;;;;;;;;;5049204;28;20066;-82
2022/04/12 11:20:00;;;;;;;2.25;0.47;;;;;;;;;;5065121;28;20032;-81
2022/04/12 11:22:46;;;;;;;1.13;0.40;;;;;;;;;;5049969;28;20040;-82
2022/04/12 11:25:31;;;;;;;2.25;0.52;;;;;;;;;;5049442;28;20430;-82
2022/04/12 11:28:21;;;;;;;1.67;0.68;;;;;;;;;;5063500;28;20032;-82
2022/04/12 11:31:07;;;;;;;2.20;0.70;;;;;;;;;;5062965;28;20028;-82
2022/04/12 11:33:53;;;;;;;0.80;0.40;;;;;;;;;;5076726;28;20097;-81
2022/04/12 11:36:39;;;;;;;2.33;0.80;;;;;;;;;;5063828;28;20047;-81
2022/04/12 11:39:30;;;;;;;2.30;1.02;;;;;;;;;;5063364;28;20036;-82
2022/04/12 11:42:16;;;;;;;3.40;1.38;;;;;;;;;;5089544;28;20062;-82
2022/04/12 11:45:02;;;;;;;3.90;1.90;;;;;;;;;;5062700;28;20143;-82
2022/04/12 11:47:48;;;;;;;4.82;1.67;;;;;;;;;;5062912;28;20028;-81
2022/04/12 11:50:34;;;;;;;4.95;1.65;;;;;;;;;;5063343;28;20051;-82
2022/04/12 11:53:20;;;;;;;3.85;2.00;;;;;;;;;;5076285;28;20434;-82
2022/04/12 11:56:06;;;;;;;4.13;1.85;;;;;;;;;;5062872;28;20084;-82
2022/04/12 11:58:52;;;;;;;3.13;1.48;;;;;;;;;;5063339;28;20414;-81
2022/04/12 12:01:37;;;;;;;4.15;1.55;;;;;;;;;;5063298;28;20128;-81
2022/04/12 12:04:28;;;;;;;2.92;1.60;;;;;;;;;;5063225;28;20044;-81
2022/04/12 12:07:17;;;;;;;3.80;1.95;;;;;;;;;;5064486;28;20067;-81
2022/04/12 12:10:11;;;;;;;4.40;1.60;;;;;;;;;;5090774;28;20036;-81
2022/04/12 12:12:57;;;;;;;3.17;1.65;;;;;;;;;;5089241;28;20063;-80
2022/04/12 12:15:44;;;;;;;3.20;1.48;;;;;;;;;;5103846;28;20127;-80
2022/04/12 12:18:38;;;;;;;3.53;1.55;;;;;;;;;;5089554;28;20090;-80
2022/04/12 12:21:29;;;;;;;3.50;1.90;;;;;;;;;;5074983;28;20075;-80
2022/04/12 12:24:15;;;;;;;4.13;1.90;;;;;;;;;;5088942;28;20130;-80
2022/04/12 12:27:00;;;;;;;4.55;1.52;;;;;;;;;;5075392;28;20032;-80
2022/04/12 12:29:47;;;;;;;3.20;1.48;;;;;;;;;;5090058;28;20040;-80
2022/04/12 12:32:37;;;;;;;2.60;1.10;;;;;;;;;;5075013;28;20039;-79
2022/04/12 12:35:26;;;;;;;3.47;1.65;;;;;;;;;;5089322;27;20399;-80
2022/04/12 12:38:16;;;;;;;3.00;1.17;;;;;;;;;;5089239;28;20036;-80
2022/04/12 12:41:01;;;;;;;3.33;1.65;;;;;;;;;;5089336;28;20044;-79
2022/04/12 12:43:52;;;;;;;2.90;1.33;;;;;;;;;;5062246;28;20036;-80
2022/04/12 12:46:37;;;;;;;2.60;1.23;;;;;;;;;;5076122;28;20042;-80
2022/04/12 12:49:23;;;;;;;2.95;1.30;;;;;;;;;;5061815;28;20043;-80
2022/04/12 12:52:14;;;;;;;2.95;1.20;;;;;;;;;;5062282;28;20094;-80
2022/04/12 12:55:00;;;;;;;3.05;1.25;;;;;;;;;;5061325;28;20036;-80
2022/04/12 12:57:49;;;;;;;2.88;1.35;;;;;;;;;;5076037;28;20041;-79
2022/04/12 13:00:36;;;;;;;2.65;1.30;;;;;;;;;;5062046;28;20044;-82
2022/04/12 13:03:22;;;;;;;3.15;1.23;;;;;;;;;;5074807;28;20056;-82
2022/04/12 13:06:08;;;;;;;2.53;1.15;;;;;;;;;;5075119;28;20486;-82
2022/04/12 13:08:53;;;;;;;2.90;1.30;;;;;;;;;;5062094;28;20124;-82
2022/04/12 13:11:39;;;;;;;4.10;1.40;;;;;;;;;;5075391;28;20036;-81
2022/04/12 13:14:25;;;;;;;2.72;1.20;;;;;;;;;;5060958;28;20036;-82
2022/04/12 13:17:10;;;;;;;3.53;1.20;;;;;;;;;;5045293;28;20036;-82
2022/04/12 13:19:57;;;;;;;3.35;1.25;;;;;;;;;;5047910;28;20051;-81
2022/04/12 13:22:43;;;;;;;2.65;1.05;;;;;;;;;;5060634;28;20044;-82
2022/04/12 13:25:30;;;;;;;2.38;1.30;;;;;;;;;;5048597;28;20119;-80
2022/04/12 13:28:16;;;;;;;2.10;1.15;;;;;;;;;;5062569;28;20047;-80
2022/04/12 13:31:02;;;;;;;3.15;1.48;;;;;;;;;;5047842;28;20032;-80
2022/04/12 13:33:47;;;;;;;3.17;1.50;;;;;;;;;;5046596;28;20039;-80
2022/04/12 13:36:33;;;;;;;3.22;1.23;;;;;;;;;;5047259;28;20079;-80
2022/04/12 13:39:19;;;;;;;2.70;1.20;;;;;;;;;;5046916;28;20086;-79
2022/04/12 13:42:05;;;;;;;2.65;1.15;;;;;;;;;;5047712;28;20090;-80
2022/04/12 13:44:53;;;;;;;3.85;1.13;;;;;;;;;;5049085;28;20040;-80
2022/04/12 13:47:39;;;;;;;2.38;0.85;;;;;;;;;;5047506;28;20086;-80
2022/04/12 13:50:25;;;;;;;3.55;1.08;;;;;;;;;;5046917;28;20055;-80
2022/04/12 13:53:11;;;;;;;2.88;1.00;;;;;;;;;;5061614;28;20076;-80
2022/04/12 13:55:57;;;;;;;3.03;1.23;;;;;;;;;;5047530;28;20044;-80
2022/04/12 13:58:42;;;;;;;2.40;0.88;;;;;;;;;;5061800;28;20028;-80
2022/04/12 14:01:28;;;;;;;2.88;1.23;;;;;;;;;;5076501;28;20044;-79
2022/04/12 14:04:14;;;;;;;1.88;0.88;;;;;;;;;;5048701;28;20036;-80
2022/04/12 14:06:59;;;;;;;3.33;1.05;;;;;;;;;;5051451;28;20036;-80
2022/04/12 14:09:45;;;;;;;3.40;1.20;;;;;;;;;;5049960;28;20125;-79
2022/04/12 14:12:31;;;;;;;2.85;1.00;;;;;;;;;;5065515;28;20048;-79
2022/04/12 14:15:17;;;;;;;1.65;0.68;;;;;;;;;;5051276;28;20042;-79
2022/04/12 14:18:02;;;;;;;1.90;0.80;;;;;;;;;;5063389;28;20502;-80
2022/04/12 14:20:48;;;;;;;2.08;0.82;;;;;;;;;;5050951;28;20040;-81
2022/04/12 14:23:36;;;;;;;2.53;0.90;;;;;;;;;;5050861;28;20048;-80
2022/04/12 14:26:21;;;;;;;2.42;0.77;;;;;;;;;;5092345;28;20039;-80
2022/04/12 14:29:09;;;;;;;1.60;0.75;;;;;;;;;;5092189;28;20044;-80
2022/04/12 14:31:55;;;;;;;2.75;1.00;;;;;;;;;;5066501;28;20494;-80
2022/04/12 14:34:41;;;;;;;1.88;0.80;;;;;;;;;;5079334;28;20067;-80
2022/04/12 14:37:26;;;;;;;2.70;1.27;;;;;;;;;;5079471;28;20528;-80
2022/04/12 14:40:12;;;;;;;1.75;1.00;;;;;;;;;;5051080;28;20132;-80
2022/04/12 14:42:58;;;;;;;2.08;0.90;;;;;;;;;;5051065;28;20028;-80
2022/04/12 14:45:45;;;;;;;2.03;0.60;;;;;;;;;;5079253;28;20043;-82
2022/04/12 14:48:31;;;;;;;2.08;1.00;;;;;;;;;;5051710;28;20044;-82
2022/04/12 14:51:17;;;;;;;2.00;0.60;;;;;;;;;;5050776;28;20087;-82
2022/04/12 14:54:02;;;;;;;1.52;0.68;;;;;;;;;;5064006;28;20127;-82
2022/04/12 14:56:48;;;;;;;1.92;0.77;;;;;;;;;;5051251;28;20044;-82
2022/04/12 14:59:34;;;;;;;2.00;0.82;;;;;;;;;;5050472;28;20066;-82
2022/04/12 15:02:20;;;;;;;1.92;0.88;;;;;;;;;;5050497;28;20043;-82
2022/04/12 15:05:05;;;;;;;2.58;0.80;;;;;;;;;;5050478;28;20036;-82
2022/04/12 15:07:51;;;;;;;2.50;1.45;;;;;;;;;;5064111;28;20047;-82
2022/04/12 15:10:37;;;;;;;1.85;0.70;;;;;;;;;;5064270;28;20063;-82
2022/04/12 15:13:23;;;;;;;1.45;0.68;;;;;;;;;;5078694;28;20107;-82
2022/04/12 15:16:09;;;;;;;2.05;0.88;;;;;;;;;;5048932;28;20035;-82
2022/04/12 15:18:54;;;;;;;1.65;0.70;;;;;;;;;;5078651;28;20032;-82
2022/04/12 15:21:40;;;;;;;1.90;0.77;;;;;;;;;;5078045;28;20469;-82
2022/04/12 15:24:28;;;;;;;2.20;0.98;;;;;;;;;;5064055;28;20040;-82
2022/04/12 15:27:13;;;;;;;1.77;0.70;;;;;;;;;;5064547;28;20502;-82
2022/04/12 15:29:59;;;;;;;2.78;0.98;;;;;;;;;;5064142;28;20032;-82
2022/04/12 15:32:45;;;;;;;2.63;0.80;;;;;;;;;;5049341;28;20032;-82
2022/04/12 15:35:31;;;;;;;1.63;0.60;;;;;;;;;;5076487;28;20043;-82
2022/04/12 15:38:17;;;;;;;3.75;0.70;;;;;;;;;;5063153;28;20036;-82
2022/04/12 15:41:02;;;;;;;1.27;0.50;;;;;;;;;;5049603;28;20035;-83
2022/04/12 15:43:49;;;;;;;1.80;0.80;;;;;;;;;;5049604;28;20036;-82
2022/04/12 15:46:34;;;;;;;2.15;0.85;;;;;;;;;;5076281;28;20032;-82
2022/04/12 15:49:20;;;;;;;1.70;0.82;;;;;;;;;;5049195;28;20051;-83
2022/04/12 15:52:06;;;;;;;1.20;0.50;;;;;;;;;;5048571;28;20555;-82
2022/04/12 15:54:51;;;;;;;4.60;0.80;;;;;;;;;;5077264;28;20051;-82
2022/04/12 15:57:37;;;;;;;2.42;0.70;;;;;;;;;;5063388;28;20039;-82
2022/04/12 16:00:24;;;;;;;2.28;0.63;;;;;;;;;;5048475;28;20044;-82
2022/04/12 16:03:10;;;;;;;1.80;0.60;;;;;;;;;;5049408;28;20032;-82
2022/04/12 16:05:55;;;;;;;2.33;0.60;;;;;;;;;;5089764;28;20032;-82
2022/04/12 16:08:42;;;;;;;1.63;0.93;;;;;;;;;;5063133;28;20070;-82
2022/04/12 16:11:28;;;;;;;1.38;0.60;;;;;;;;;;5076655;28;20036;-82
2022/04/12 16:14:14;;;;;;;1.80;0.60;;;;;;;;;;5049833;28;20074;-82
2022/04/12 16:16:59;;;;;;;1.20;0.50;;;;;;;;;;5048486;28;20066;-82
2022/04/12 16:19:45;;;;;;;1.80;0.68;;;;;;;;;;5048963;28;20043;-82
2022/04/12 16:22:31;;;;;;;2.75;0.80;;;;;;;;;;5049052;28;20454;-82
2022/04/12 16:25:16;;;;;;;1.27;0.70;;;;;;;;;;5047415;28;20082;-80
2022/04/12 16:28:03;;;;;;;3.63;0.88;;;;;;;;;;5048933;28;20032;-81
2022/04/12 16:30:49;;;;;;;2.45;0.88;;;;;;;;;;5062254;28;20506;-80
2022/04/12 16:33:35;;;;;;;1.05;0.40;;;;;;;;;;5062112;28;20509;-80
2022/04/12 16:36:21;;;;;;;0.90;0.55;;;;;;;;;;5047615;28;20040;-80
2022/04/12 16:39:06;;;;;;;1.63;0.70;;;;;;;;;;5049857;28;20044;-80
2022/04/12 16:41:52;;;;;;;1.33;0.50;;;;;;;;;;5048203;28;20043;-80